sensor_id;sensor_type;location;lat;lon;timestamp;pressure;altitude;pressure_sealevel;temperature;humidity
62680;BME280;68213;40.528;44.712;2023-04-02T00:00:23;79686.16;;;-4.01;70.57
62680;BME280;68213;40.528;44.712;2023-04-02T00:01:34;79689.06;;;-4.04;71.60
62680;BME280;68213;40.528;44.712;2023-04-02T00:06:33;79701.72;;;-4.22;72.90
62680;BME280;68213;40.528;44.712;2023-04-02T00:07:39;79693.34;;;-4.30;72.73
62680;BME280;68213;40.528;44.712;2023-04-02T00:08:40;79701.03;;;-4.30;72.95
62680;BME280;68213;40.528;44.712;2023-04-02T00:09:41;79698.81;;;-4.34;73.16
62680;BME280;68213;40.528;44.712;2023-04-02T00:10:46;79702.56;;;-4.35;73.28
62680;BME280;68213;40.528;44.712;2023-04-02T00:11:50;79701.03;;;-4.38;73.96
62680;BME280;68213;40.528;44.712;2023-04-02T00:14:32;79699.84;;;-4.44;75.02
62680;BME280;68213;40.528;44.712;2023-04-02T00:15:35;79692.28;;;-4.42;74.99
62680;BME280;68213;40.528;44.712;2023-04-02T00:16:36;79691.09;;;-4.49;74.94
62680;BME280;68213;40.528;44.712;2023-04-02T00:17:37;79687.50;;;-4.54;75.26
62680;BME280;68213;40.528;44.712;2023-04-02T00:18:45;79702.56;;;-4.50;75.01
62680;BME280;68213;40.528;44.712;2023-04-02T00:19:59;79701.38;;;-4.49;73.92
62680;BME280;68213;40.528;44.712;2023-04-02T00:22:20;79702.91;;;-4.54;74.29
62680;BME280;68213;40.528;44.712;2023-04-02T00:23:22;79702.91;;;-4.54;74.19
62680;BME280;68213;40.528;44.712;2023-04-02T00:24:23;79691.25;;;-4.55;74.73
62680;BME280;68213;40.528;44.712;2023-04-02T00:25:26;79688.19;;;-4.61;75.03
62680;BME280;68213;40.528;44.712;2023-04-02T00:26:32;79691.59;;;-4.58;74.82
62680;BME280;68213;40.528;44.712;2023-04-02T00:27:35;79678.59;;;-4.60;73.84
62680;BME280;68213;40.528;44.712;2023-04-02T00:28:35;79684.59;;;-4.58;72.44
62680;BME280;68213;40.528;44.712;2023-04-02T00:29:53;79687.50;;;-4.54;72.66
62680;BME280;68213;40.528;44.712;2023-04-02T00:30:58;79681.69;;;-4.54;71.69
62680;BME280;68213;40.528;44.712;2023-04-02T00:32:01;79677.56;;;-4.50;71.32
62680;BME280;68213;40.528;44.712;2023-04-02T00:33:02;79679.31;;;-4.44;70.52
62680;BME280;68213;40.528;44.712;2023-04-02T00:34:05;79686.16;;;-4.39;69.18
62680;BME280;68213;40.528;44.712;2023-04-02T00:35:26;79687.84;;;-4.34;68.28
62680;BME280;68213;40.528;44.712;2023-04-02T00:36:29;79694.19;;;-4.27;65.38
62680;BME280;68213;40.528;44.712;2023-04-02T00:37:34;79690.09;;;-4.23;66.20
62680;BME280;68213;40.528;44.712;2023-04-02T00:38:39;79691.63;;;-4.20;66.45
62680;BME280;68213;40.528;44.712;2023-04-02T00:39:43;79687.03;;;-4.13;64.22
62680;BME280;68213;40.528;44.712;2023-04-02T00:41:52;79698.13;;;-4.11;67.33
62680;BME280;68213;40.528;44.712;2023-04-02T00:43:05;79694.88;;;-4.11;68.54
62680;BME280;68213;40.528;44.712;2023-04-02T00:44:10;79703.25;;;-4.19;69.10
62680;BME280;68213;40.528;44.712;2023-04-02T00:46:28;79697.78;;;-4.31;69.97
62680;BME280;68213;40.528;44.712;2023-04-02T00:47:33;79695.88;;;-4.38;70.39
62680;BME280;68213;40.528;44.712;2023-04-02T00:49:45;79704.91;;;-4.68;70.50
62680;BME280;68213;40.528;44.712;2023-04-02T00:50:47;79702.34;;;-4.68;70.14
62680;BME280;68213;40.528;44.712;2023-04-02T00:52:01;79701.16;;;-4.74;70.44
62680;BME280;68213;40.528;44.712;2023-04-02T00:53:28;79705.09;;;-4.66;69.71
62680;BME280;68213;40.528;44.712;2023-04-02T00:54:36;79702.00;;;-4.72;69.64
62680;BME280;68213;40.528;44.712;2023-04-02T00:55:40;79694.28;;;-4.80;69.28
62680;BME280;68213;40.528;44.712;2023-04-02T00:56:43;79677.88;;;-4.92;68.65
62680;BME280;68213;40.528;44.712;2023-04-02T00:57:45;79695.50;;;-4.81;68.71
62680;BME280;68213;40.528;44.712;2023-04-02T00:58:51;79704.06;;;-4.70;68.52
62680;BME280;68213;40.528;44.712;2023-04-02T00:59:57;79707.47;;;-4.68;68.34
62680;BME280;68213;40.528;44.712;2023-04-02T01:00:58;79715.00;;;-4.70;67.53
62680;BME280;68213;40.528;44.712;2023-04-02T01:04:34;79691.34;;;-4.99;67.00
62680;BME280;68213;40.528;44.712;2023-04-02T01:05:36;79687.44;;;-4.92;66.87
62680;BME280;68213;40.528;44.712;2023-04-02T01:06:37;79709.63;;;-5.03;67.42
62680;BME280;68213;40.528;44.712;2023-04-02T01:12:02;79711.84;;;-4.99;67.34
62680;BME280;68213;40.528;44.712;2023-04-02T01:15:39;79704.84;;;-4.99;67.38
62680;BME280;68213;40.528;44.712;2023-04-02T01:19:02;79707.56;;;-5.04;66.75
62680;BME280;68213;40.528;44.712;2023-04-02T01:21:40;79713.03;;;-5.45;68.46
62680;BME280;68213;40.528;44.712;2023-04-02T01:24:07;79638.91;;;-6.02;68.44
62680;BME280;68213;40.528;44.712;2023-04-02T01:25:13;79716.97;;;-5.44;68.00
62680;BME280;68213;40.528;44.712;2023-04-02T01:27:55;79717.84;;;-5.41;67.45
62680;BME280;68213;40.528;44.712;2023-04-02T01:29:06;79704.50;;;-5.47;66.89
62680;BME280;68213;40.528;44.712;2023-04-02T01:30:08;79716.78;;;-5.46;66.63
62680;BME280;68213;40.528;44.712;2023-04-02T01:31:11;79710.94;;;-5.54;66.77
62680;BME280;68213;40.528;44.712;2023-04-02T01:32:16;79709.41;;;-5.57;67.48
62680;BME280;68213;40.528;44.712;2023-04-02T01:33:28;79715.94;;;-5.48;66.90
62680;BME280;68213;40.528;44.712;2023-04-02T01:34:32;79707.69;;;-5.91;67.59
62680;BME280;68213;40.528;44.712;2023-04-02T01:35:37;79684.41;;;-6.09;67.57
62680;BME280;68213;40.528;44.712;2023-04-02T01:37:58;79689.31;;;-5.82;64.11
62680;BME280;68213;40.528;44.712;2023-04-02T01:40:47;79716.88;;;-6.25;67.94
62680;BME280;68213;40.528;44.712;2023-04-02T01:43:23;79647.84;;;-6.75;66.20
62680;BME280;68213;40.528;44.712;2023-04-02T01:44:36;79710.44;;;-6.18;64.63
62680;BME280;68213;40.528;44.712;2023-04-02T01:45:39;79715.03;;;-6.24;65.03
62680;BME280;68213;40.528;44.712;2023-04-02T01:46:41;79717.31;;;-6.13;65.84
62680;BME280;68213;40.528;44.712;2023-04-02T01:47:43;79675.84;;;-6.40;65.16
62680;BME280;68213;40.528;44.712;2023-04-02T01:48:44;79706.28;;;-6.08;64.06
62680;BME280;68213;40.528;44.712;2023-04-02T01:50:55;79709.06;;;-5.90;63.69
62680;BME280;68213;40.528;44.712;2023-04-02T01:51:58;79711.69;;;-5.82;63.35
62680;BME280;68213;40.528;44.712;2023-04-02T01:53:23;79691.97;;;-5.95;63.80
62680;BME280;68213;40.528;44.712;2023-04-02T01:54:40;79694.50;;;-6.03;64.94
62680;BME280;68213;40.528;44.712;2023-04-02T01:55:43;79716.25;;;-5.88;63.59
62680;BME280;68213;40.528;44.712;2023-04-02T01:56:47;79715.00;;;-5.95;64.10
62680;BME280;68213;40.528;44.712;2023-04-02T01:57:51;79714.31;;;-6.03;65.46
62680;BME280;68213;40.528;44.712;2023-04-02T01:58:58;79717.38;;;-5.97;65.02
62680;BME280;68213;40.528;44.712;2023-04-02T02:00:00;79695.13;;;-6.10;64.12
62680;BME280;68213;40.528;44.712;2023-04-02T02:01:04;79711.28;;;-5.86;64.45
62680;BME280;68213;40.528;44.712;2023-04-02T02:02:10;79719.84;;;-5.84;64.11
62680;BME280;68213;40.528;44.712;2023-04-02T02:03:12;79710.63;;;-5.87;64.16
62680;BME280;68213;40.528;44.712;2023-04-02T02:04:15;79694.88;;;-5.99;63.53
62680;BME280;68213;40.528;44.712;2023-04-02T02:05:21;79713.97;;;-6.29;65.13
62680;BME280;68213;40.528;44.712;2023-04-02T02:06:23;79715.38;;;-6.20;65.75
62680;BME280;68213;40.528;44.712;2023-04-02T02:07:24;79717.13;;;-6.15;65.54
62680;BME280;68213;40.528;44.712;2023-04-02T02:08:36;79724.00;;;-6.10;64.71
62680;BME280;68213;40.528;44.712;2023-04-02T02:09:38;79716.66;;;-6.06;63.80
62680;BME280;68213;40.528;44.712;2023-04-02T02:10:38;79690.66;;;-6.17;63.99
62680;BME280;68213;40.528;44.712;2023-04-02T02:11:40;79717.03;;;-6.01;64.15
62680;BME280;68213;40.528;44.712;2023-04-02T02:12:43;79719.41;;;-6.03;63.99
62680;BME280;68213;40.528;44.712;2023-04-02T02:13:59;79701.06;;;-6.23;64.48
62680;BME280;68213;40.528;44.712;2023-04-02T02:15:01;79717.13;;;-6.15;64.13
62680;BME280;68213;40.528;44.712;2023-04-02T02:16:02;79720.38;;;-6.14;64.13
62680;BME280;68213;40.528;44.712;2023-04-02T02:17:15;79726.75;;;-6.08;63.44
62680;BME280;68213;40.528;44.712;2023-04-02T02:18:21;79696.00;;;-6.37;64.56
62680;BME280;68213;40.528;44.712;2023-04-02T02:19:48;79723.25;;;-6.18;64.37
62680;BME280;68213;40.528;44.712;2023-04-02T02:21:13;79715.63;;;-6.10;64.25
62680;BME280;68213;40.528;44.712;2023-04-02T02:22:34;79720.78;;;-6.02;64.20
62680;BME280;68213;40.528;44.712;2023-04-02T02:23:36;79719.41;;;-6.03;64.15
62680;BME280;68213;40.528;44.712;2023-04-02T02:24:37;79723.91;;;-6.17;64.11
62680;BME280;68213;40.528;44.712;2023-04-02T02:25:39;79726.06;;;-6.29;65.18
62680;BME280;68213;40.528;44.712;2023-04-02T02:26:41;79722.31;;;-6.28;64.77
62680;BME280;68213;40.528;44.712;2023-04-02T02:28:55;79719.84;;;-6.42;65.17
62680;BME280;68213;40.528;44.712;2023-04-02T02:30:21;79729.69;;;-6.46;66.22
62680;BME280;68213;40.528;44.712;2023-04-02T02:31:28;79722.16;;;-6.30;65.60
62680;BME280;68213;40.528;44.712;2023-04-02T02:32:34;79724.75;;;-6.23;65.34
62680;BME280;68213;40.528;44.712;2023-04-02T02:33:49;79726.75;;;-6.08;67.12
62680;BME280;68213;40.528;44.712;2023-04-02T02:35:00;79728.81;;;-6.27;64.69
62680;BME280;68213;40.528;44.712;2023-04-02T02:36:08;79730.13;;;-6.34;65.36
62680;BME280;68213;40.528;44.712;2023-04-02T02:37:23;79717.81;;;-6.35;65.34
62680;BME280;68213;40.528;44.712;2023-04-02T02:39:44;79724.63;;;-6.38;65.50
62680;BME280;68213;40.528;44.712;2023-04-02T02:40:49;79723.13;;;-6.33;64.64
62680;BME280;68213;40.528;44.712;2023-04-02T02:42:08;79717.06;;;-6.23;63.49
62680;BME280;68213;40.528;44.712;2023-04-02T02:43:12;79721.94;;;-6.11;63.36
62680;BME280;68213;40.528;44.712;2023-04-02T02:44:21;79730.16;;;-6.05;62.84
62680;BME280;68213;40.528;44.712;2023-04-02T02:45:31;79719.09;;;-6.00;62.56
62680;BME280;68213;40.528;44.712;2023-04-02T02:46:38;79717.91;;;-5.99;61.97
62680;BME280;68213;40.528;44.712;2023-04-02T02:47:41;79711.25;;;-5.94;61.57
62680;BME280;68213;40.528;44.712;2023-04-02T02:48:43;79721.47;;;-6.02;62.39
62680;BME280;68213;40.528;44.712;2023-04-02T02:49:54;79730.16;;;-6.05;62.20
62680;BME280;68213;40.528;44.712;2023-04-02T02:50:56;79709.47;;;-6.15;62.45
62680;BME280;68213;40.528;44.712;2023-04-02T02:51:59;79711.94;;;-6.01;61.66
62680;BME280;68213;40.528;44.712;2023-04-02T02:53:05;79725.91;;;-6.02;62.60
62680;BME280;68213;40.528;44.712;2023-04-02T02:54:07;79732.03;;;-6.06;62.28
62680;BME280;68213;40.528;44.712;2023-04-02T02:56:15;79692.34;;;-6.20;61.00
62680;BME280;68213;40.528;44.712;2023-04-02T02:57:24;79716.75;;;-5.90;60.74
62680;BME280;68213;40.528;44.712;2023-04-02T02:58:29;79720.50;;;-6.20;62.74
62680;BME280;68213;40.528;44.712;2023-04-02T02:59:31;79720.00;;;-6.18;61.95
62680;BME280;68213;40.528;44.712;2023-04-02T03:00:34;79680.66;;;-6.37;61.54
62680;BME280;68213;40.528;44.712;2023-04-02T03:01:37;79713.31;;;-6.00;60.33
62680;BME280;68213;40.528;44.712;2023-04-02T03:02:39;79711.63;;;-6.19;62.24
62680;BME280;68213;40.528;44.712;2023-04-02T03:03:41;79709.63;;;-6.13;62.21
62680;BME280;68213;40.528;44.712;2023-04-02T03:04:46;79714.94;;;-6.11;62.51
62680;BME280;68213;40.528;44.712;2023-04-02T03:06:07;79712.47;;;-6.24;62.88
62680;BME280;68213;40.528;44.712;2023-04-02T03:07:09;79713.34;;;-6.22;62.82
62680;BME280;68213;40.528;44.712;2023-04-02T03:08:14;79717.03;;;-6.30;63.21
62680;BME280;68213;40.528;44.712;2023-04-02T03:13:00;79722.38;;;-6.20;62.03
62680;BME280;68213;40.528;44.712;2023-04-02T03:17:08;79713.44;;;-6.06;61.00
62680;BME280;68213;40.528;44.712;2023-04-02T03:18:17;79712.25;;;-5.97;59.98
62680;BME280;68213;40.528;44.712;2023-04-02T03:19:30;79727.28;;;-6.01;61.34
62680;BME280;68213;40.528;44.712;2023-04-02T03:20:38;79726.78;;;-6.21;61.81
62680;BME280;68213;40.528;44.712;2023-04-02T03:21:48;79723.06;;;-6.20;62.31
62680;BME280;68213;40.528;44.712;2023-04-02T03:23:17;79727.72;;;-6.11;61.85
62680;BME280;68213;40.528;44.712;2023-04-02T03:25:40;79725.44;;;-5.93;61.33
62680;BME280;68213;40.528;44.712;2023-04-02T03:26:50;79730.41;;;-5.87;61.45
62680;BME280;68213;40.528;44.712;2023-04-02T03:27:58;79728.31;;;-5.97;61.87
62680;BME280;68213;40.528;44.712;2023-04-02T03:30:40;79730.16;;;-6.05;62.29
62680;BME280;68213;40.528;44.712;2023-04-02T03:31:42;79720.00;;;-5.90;61.57
62680;BME280;68213;40.528;44.712;2023-04-02T03:32:45;79717.66;;;-5.80;61.29
62680;BME280;68213;40.528;44.712;2023-04-02T03:33:50;79731.66;;;-5.81;61.67
62680;BME280;68213;40.528;44.712;2023-04-02T03:35:02;79725.34;;;-5.80;62.11
62680;BME280;68213;40.528;44.712;2023-04-02T03:37:46;79679.91;;;-5.87;61.71
62680;BME280;68213;40.528;44.712;2023-04-02T03:39:01;79715.44;;;-5.76;62.64
62680;BME280;68213;40.528;44.712;2023-04-02T03:40:16;79712.03;;;-5.78;62.41
62680;BME280;68213;40.528;44.712;2023-04-02T03:41:26;79719.66;;;-5.57;59.49
62680;BME280;68213;40.528;44.712;2023-04-02T03:42:40;79717.53;;;-5.37;59.06
62680;BME280;68213;40.528;44.712;2023-04-02T03:43:51;79724.22;;;-5.27;60.29
62680;BME280;68213;40.528;44.712;2023-04-02T03:44:58;79725.81;;;-5.16;58.43
62680;BME280;68213;40.528;44.712;2023-04-02T03:46:43;79712.75;;;-4.89;57.07
62680;BME280;68213;40.528;44.712;2023-04-02T03:47:50;79723.22;;;-4.64;57.75
62680;BME280;68213;40.528;44.712;2023-04-02T03:48:56;79722.06;;;-4.47;56.61
62680;BME280;68213;40.528;44.712;2023-04-02T03:50:10;79720.69;;;-4.40;57.69
62680;BME280;68213;40.528;44.712;2023-04-02T03:52:29;79719.69;;;-4.22;57.56
62680;BME280;68213;40.528;44.712;2023-04-02T03:53:30;79725.53;;;-4.13;57.86
62680;BME280;68213;40.528;44.712;2023-04-02T03:54:32;79727.38;;;-4.30;58.89
62680;BME280;68213;40.528;44.712;2023-04-02T03:55:35;79725.88;;;-4.17;58.79
62680;BME280;68213;40.528;44.712;2023-04-02T03:56:37;79724.47;;;-4.10;55.50
62680;BME280;68213;40.528;44.712;2023-04-02T04:01:26;79713.69;;;-3.93;56.83
62680;BME280;68213;40.528;44.712;2023-04-02T04:02:33;79729.97;;;-3.83;57.33
62680;BME280;68213;40.528;44.712;2023-04-02T04:03:48;79729.44;;;-3.82;58.13
62680;BME280;68213;40.528;44.712;2023-04-02T04:04:49;79730.81;;;-3.80;58.43
62680;BME280;68213;40.528;44.712;2023-04-02T04:05:56;79732.69;;;-3.73;57.09
62680;BME280;68213;40.528;44.712;2023-04-02T04:06:59;79730.13;;;-3.73;55.75
62680;BME280;68213;40.528;44.712;2023-04-02T04:08:13;79730.63;;;-3.67;55.14
62680;BME280;68213;40.528;44.712;2023-04-02T04:09:35;79731.31;;;-3.51;53.67
62680;BME280;68213;40.528;44.712;2023-04-02T04:10:37;79727.34;;;-3.44;51.79
62680;BME280;68213;40.528;44.712;2023-04-02T04:11:45;79725.97;;;-3.38;55.48
62680;BME280;68213;40.528;44.712;2023-04-02T04:12:49;79724.63;;;-3.39;53.62
62680;BME280;68213;40.528;44.712;2023-04-02T04:14:01;79734.19;;;-3.31;53.49
62680;BME280;68213;40.528;44.712;2023-04-02T04:15:08;79729.53;;;-3.17;56.21
62680;BME280;68213;40.528;44.712;2023-04-02T04:16:18;79733.09;;;-3.05;55.16
62680;BME280;68213;40.528;44.712;2023-04-02T04:17:29;79726.38;;;-2.93;53.84
62680;BME280;68213;40.528;44.712;2023-04-02T04:18:42;79734.75;;;-2.77;54.32
62680;BME280;68213;40.528;44.712;2023-04-02T04:19:58;79740.03;;;-2.67;54.39
62680;BME280;68213;40.528;44.712;2023-04-02T04:21:04;79735.88;;;-2.62;54.41
62680;BME280;68213;40.528;44.712;2023-04-02T04:22:16;79731.03;;;-2.50;53.92
62680;BME280;68213;40.528;44.712;2023-04-02T04:24:26;79733.53;;;-2.35;54.28
62680;BME280;68213;40.528;44.712;2023-04-02T04:25:28;79726.19;;;-2.38;55.83
62680;BME280;68213;40.528;44.712;2023-04-02T04:29:23;79742.06;;;-2.25;55.42
62680;BME280;68213;40.528;44.712;2023-04-02T04:30:36;79728.88;;;-2.29;56.74
62680;BME280;68213;40.528;44.712;2023-04-02T04:31:46;79738.69;;;-2.35;55.80
62680;BME280;68213;40.528;44.712;2023-04-02T04:33:24;79737.28;;;-2.28;55.17
62680;BME280;68213;40.528;44.712;2023-04-02T04:34:44;79716.16;;;-2.27;55.94
62680;BME280;68213;40.528;44.712;2023-04-02T04:35:58;79740.50;;;-2.20;54.96
62680;BME280;68213;40.528;44.712;2023-04-02T04:37:02;79729.16;;;-2.17;54.85
62680;BME280;68213;40.528;44.712;2023-04-02T04:38:12;79697.28;;;-2.29;55.22
62680;BME280;68213;40.528;44.712;2023-04-02T04:39:40;79726.31;;;-2.03;54.89
62680;BME280;68213;40.528;44.712;2023-04-02T04:40:46;79742.25;;;-1.97;53.53
62680;BME280;68213;40.528;44.712;2023-04-02T04:41:58;79738.09;;;-1.93;54.77
62680;BME280;68213;40.528;44.712;2023-04-02T04:43:05;79749.09;;;-1.92;54.31
62680;BME280;68213;40.528;44.712;2023-04-02T04:44:16;79734.47;;;-1.89;52.63
62680;BME280;68213;40.528;44.712;2023-04-02T04:45:45;79718.03;;;-1.94;54.11
62680;BME280;68213;40.528;44.712;2023-04-02T04:47:09;79724.16;;;-1.89;54.77
62680;BME280;68213;40.528;44.712;2023-04-02T04:50:00;79738.59;;;-1.86;54.91
62680;BME280;68213;40.528;44.712;2023-04-02T04:51:29;79730.19;;;-1.87;54.87
62680;BME280;68213;40.528;44.712;2023-04-02T04:52:35;79748.06;;;-1.97;55.96
62680;BME280;68213;40.528;44.712;2023-04-02T04:53:45;79731.53;;;-1.86;55.91
62680;BME280;68213;40.528;44.712;2023-04-02T04:54:47;79723.78;;;-1.86;55.43
62680;BME280;68213;40.528;44.712;2023-04-02T04:55:51;79737.31;;;-1.78;55.30
62680;BME280;68213;40.528;44.712;2023-04-02T04:57:02;79738.22;;;-1.83;55.59
62680;BME280;68213;40.528;44.712;2023-04-02T05:00:41;79721.84;;;-1.78;56.89
62680;BME280;68213;40.528;44.712;2023-04-02T05:01:54;79739.06;;;-1.80;57.17
62680;BME280;68213;40.528;44.712;2023-04-02T05:03:19;79742.72;;;-1.91;58.47
62680;BME280;68213;40.528;44.712;2023-04-02T05:05:30;79710.78;;;-2.21;59.40
62680;BME280;68213;40.528;44.712;2023-04-02T05:07:45;79720.38;;;-2.14;59.96
62680;BME280;68213;40.528;44.712;2023-04-02T05:08:51;79735.16;;;-2.14;58.58
62680;BME280;68213;40.528;44.712;2023-04-02T05:10:05;79724.66;;;-2.09;59.39
62680;BME280;68213;40.528;44.712;2023-04-02T05:11:22;79736.25;;;-2.00;59.58
62680;BME280;68213;40.528;44.712;2023-04-02T05:12:35;79715.75;;;-1.90;58.52
62680;BME280;68213;40.528;44.712;2023-04-02T05:13:44;79733.44;;;-1.86;58.14
62680;BME280;68213;40.528;44.712;2023-04-02T05:14:59;79713.19;;;-1.90;57.83
62680;BME280;68213;40.528;44.712;2023-04-02T05:18:31;79729.38;;;-1.72;57.58
62680;BME280;68213;40.528;44.712;2023-04-02T05:20:42;79726.16;;;-1.55;56.98
62680;BME280;68213;40.528;44.712;2023-04-02T05:21:50;79718.50;;;-1.63;56.88
62680;BME280;68213;40.528;44.712;2023-04-02T05:23:03;79708.03;;;-1.65;56.32
62680;BME280;68213;40.528;44.712;2023-04-02T05:24:24;79717.94;;;-1.36;56.46
62680;BME280;68213;40.528;44.712;2023-04-02T05:25:29;79726.25;;;-1.45;56.92
62680;BME280;68213;40.528;44.712;2023-04-02T05:26:42;79744.94;;;-1.37;56.35
62680;BME280;68213;40.528;44.712;2023-04-02T05:28:58;79744.44;;;-1.18;56.39
62680;BME280;68213;40.528;44.712;2023-04-02T05:30:06;79738.00;;;-1.09;56.68
62680;BME280;68213;40.528;44.712;2023-04-02T05:31:15;79732.38;;;-1.15;56.30
62680;BME280;68213;40.528;44.712;2023-04-02T05:32:23;79717.34;;;-1.26;57.21
62680;BME280;68213;40.528;44.712;2023-04-02T05:33:28;79717.06;;;-1.31;57.21
62680;BME280;68213;40.528;44.712;2023-04-02T05:34:36;79713.09;;;-1.32;57.06
62680;BME280;68213;40.528;44.712;2023-04-02T05:35:41;79710.50;;;-1.49;57.76
62680;BME280;68213;40.528;44.712;2023-04-02T05:36:45;79710.06;;;-1.38;57.67
62680;BME280;68213;40.528;44.712;2023-04-02T05:37:46;79707.75;;;-1.51;58.04
62680;BME280;68213;40.528;44.712;2023-04-02T05:38:48;79717.59;;;-1.57;58.11
62680;BME280;68213;40.528;44.712;2023-04-02T05:39:54;79713.28;;;-1.55;58.59
62680;BME280;68213;40.528;44.712;2023-04-02T05:41:02;79697.19;;;-1.63;59.04
62680;BME280;68213;40.528;44.712;2023-04-02T05:42:05;79721.25;;;-1.61;59.27
62680;BME280;68213;40.528;44.712;2023-04-02T05:43:14;79701.28;;;-1.60;59.70
62680;BME280;68213;40.528;44.712;2023-04-02T05:44:32;79701.56;;;-1.73;59.50
62680;BME280;68213;40.528;44.712;2023-04-02T05:45:35;79713.91;;;-1.72;59.59
62680;BME280;68213;40.528;44.712;2023-04-02T05:47:03;79711.19;;;-1.74;59.35
62680;BME280;68213;40.528;44.712;2023-04-02T05:48:15;79714.81;;;-1.77;59.83
62680;BME280;68213;40.528;44.712;2023-04-02T05:49:23;79699.41;;;-1.85;60.07
62680;BME280;68213;40.528;44.712;2023-04-02T05:50:28;79698.91;;;-1.83;59.87
62680;BME280;68213;40.528;44.712;2023-04-02T05:51:42;79694.63;;;-1.88;60.39
62680;BME280;68213;40.528;44.712;2023-04-02T05:52:52;79704.19;;;-1.81;60.79
62680;BME280;68213;40.528;44.712;2023-04-02T05:53:59;79715.22;;;-1.88;60.62
62680;BME280;68213;40.528;44.712;2023-04-02T05:56:25;79746.78;;;-1.80;59.90
62680;BME280;68213;40.528;44.712;2023-04-02T05:57:34;79718.28;;;-1.82;60.36
62680;BME280;68213;40.528;44.712;2023-04-02T05:58:42;79727.34;;;-1.73;60.00
62680;BME280;68213;40.528;44.712;2023-04-02T05:59:48;79741.59;;;-1.72;59.85
62680;BME280;68213;40.528;44.712;2023-04-02T06:02:05;79743.44;;;-1.65;59.29
62680;BME280;68213;40.528;44.712;2023-04-02T06:04:45;79741.53;;;-1.65;59.37
62680;BME280;68213;40.528;44.712;2023-04-02T06:05:45;79733.03;;;-1.75;60.01
62680;BME280;68213;40.528;44.712;2023-04-02T06:08:10;79741.44;;;-1.74;60.32
62680;BME280;68213;40.528;44.712;2023-04-02T06:09:30;79717.69;;;-1.73;60.71
62680;BME280;68213;40.528;44.712;2023-04-02T06:10:41;79711.66;;;-1.68;60.43
62680;BME280;68213;40.528;44.712;2023-04-02T06:11:48;79736.06;;;-1.69;59.70
62680;BME280;68213;40.528;44.712;2023-04-02T06:13:11;79752.69;;;-1.62;59.85
62680;BME280;68213;40.528;44.712;2023-04-02T06:14:15;79716.34;;;-1.74;59.98
62680;BME280;68213;40.528;44.712;2023-04-02T06:15:18;79742.53;;;-1.60;59.43
62680;BME280;68213;40.528;44.712;2023-04-02T06:16:24;79692.88;;;-1.61;60.19
62680;BME280;68213;40.528;44.712;2023-04-02T06:17:25;79719.59;;;-1.48;59.48
62680;BME280;68213;40.528;44.712;2023-04-02T06:18:29;79722.94;;;-1.63;59.29
62680;BME280;68213;40.528;44.712;2023-04-02T06:19:35;79711.91;;;-1.56;58.91
62680;BME280;68213;40.528;44.712;2023-04-02T06:20:36;79735.47;;;-1.34;58.50
62680;BME280;68213;40.528;44.712;2023-04-02T06:21:43;79738.81;;;-1.24;58.09
62680;BME280;68213;40.528;44.712;2023-04-02T06:22:47;79716.81;;;-1.25;58.60
62680;BME280;68213;40.528;44.712;2023-04-02T06:23:54;79740.09;;;-1.15;58.33
62680;BME280;68213;40.528;44.712;2023-04-02T06:25:32;79752.94;;;-1.07;57.81
62680;BME280;68213;40.528;44.712;2023-04-02T06:27:31;79770.50;;;-0.88;57.81
62680;BME280;68213;40.528;44.712;2023-04-02T06:30:03;79774.78;;;-0.66;56.95
62680;BME280;68213;40.528;44.712;2023-04-02T06:31:09;79769.53;;;-0.58;56.37
62680;BME280;68213;40.528;44.712;2023-04-02T06:32:13;79732.56;;;-0.60;56.53
62680;BME280;68213;40.528;44.712;2023-04-02T06:33:13;79740.78;;;-0.72;56.69
62680;BME280;68213;40.528;44.712;2023-04-02T06:34:20;79713.97;;;-0.76;56.56
62680;BME280;68213;40.528;44.712;2023-04-02T06:35:22;79739.41;;;-0.73;57.52
62680;BME280;68213;40.528;44.712;2023-04-02T06:36:24;79772.56;;;-0.69;57.70
62680;BME280;68213;40.528;44.712;2023-04-02T06:37:35;79759.19;;;-0.58;57.40
62680;BME280;68213;40.528;44.712;2023-04-02T06:38:38;79741.91;;;-0.47;57.85
62680;BME280;68213;40.528;44.712;2023-04-02T06:39:40;79764.91;;;-0.42;56.73
62680;BME280;68213;40.528;44.712;2023-04-02T06:40:43;79772.34;;;-0.28;56.27
62680;BME280;68213;40.528;44.712;2023-04-02T06:41:45;79761.84;;;-0.30;56.06
62680;BME280;68213;40.528;44.712;2023-04-02T06:42:47;79739.59;;;-0.26;56.03
62680;BME280;68213;40.528;44.712;2023-04-02T06:44:05;79727.59;;;-0.31;56.14
62680;BME280;68213;40.528;44.712;2023-04-02T06:45:17;79715.75;;;-0.34;56.05
62680;BME280;68213;40.528;44.712;2023-04-02T06:46:31;79733.97;;;-0.32;56.04
62680;BME280;68213;40.528;44.712;2023-04-02T06:47:40;79744.69;;;-0.36;56.19
62680;BME280;68213;40.528;44.712;2023-04-02T06:48:45;79754.94;;;-0.28;56.51
62680;BME280;68213;40.528;44.712;2023-04-02T06:49:51;79746.91;;;-0.32;56.56
62680;BME280;68213;40.528;44.712;2023-04-02T06:51:05;79740.72;;;-0.19;55.91
62680;BME280;68213;40.528;44.712;2023-04-02T06:52:14;79737.69;;;-0.25;56.84
62680;BME280;68213;40.528;44.712;2023-04-02T06:53:22;79773.56;;;-0.29;56.54
62680;BME280;68213;40.528;44.712;2023-04-02T06:54:25;79756.00;;;-0.31;57.06
62680;BME280;68213;40.528;44.712;2023-04-02T06:56:51;79768.50;;;-0.10;55.59
62680;BME280;68213;40.528;44.712;2023-04-02T06:57:52;79759.34;;;0.07;56.38
62680;BME280;68213;40.528;44.712;2023-04-02T06:58:56;79776.28;;;0.18;55.11
62680;BME280;68213;40.528;44.712;2023-04-02T06:59:57;79777.06;;;0.10;53.82
62680;BME280;68213;40.528;44.712;2023-04-02T07:00:57;79774.28;;;-0.02;54.55
62680;BME280;68213;40.528;44.712;2023-04-02T07:02:21;79762.66;;;0.07;54.44
62680;BME280;68213;40.528;44.712;2023-04-02T07:03:27;79764.13;;;0.10;54.84
62680;BME280;68213;40.528;44.712;2023-04-02T07:04:28;79762.53;;;0.15;55.20
62680;BME280;68213;40.528;44.712;2023-04-02T07:05:29;79771.88;;;0.28;55.38
62680;BME280;68213;40.528;44.712;2023-04-02T07:06:30;79768.28;;;0.23;54.29
62680;BME280;68213;40.528;44.712;2023-04-02T07:07:31;79754.59;;;0.30;54.59
62680;BME280;68213;40.528;44.712;2023-04-02T07:08:32;79742.91;;;0.39;55.20
62680;BME280;68213;40.528;44.712;2023-04-02T07:09:32;79751.56;;;0.24;55.60